sensor_id;sensor_type;location;lat;lon;timestamp;P1;durP1;ratioP1;P2;durP2;ratioP2
17854;SDS011;9053;53.358;6.382;2022-08-19T00:02:16;5.43;;;4.80;;
17854;SDS011;9053;53.358;6.382;2022-08-19T00:04:46;6.75;;;5.53;;
17854;SDS011;9053;53.358;6.382;2022-08-19T00:07:21;7.95;;;5.40;;
17854;SDS011;9053;53.358;6.382;2022-08-19T00:09:51;5.80;;;5.28;;
17854;SDS011;9053;53.358;6.382;2022-08-19T00:12:22;4.47;;;4.00;;
17854;SDS011;9053;53.358;6.382;2022-08-19T00:14:52;5.85;;;4.85;;
17854;SDS011;9053;53.358;6.382;2022-08-19T00:17:23;5.13;;;4.63;;
17854;SDS011;9053;53.358;6.382;2022-08-19T00:19:52;5.82;;;5.20;;
17854;SDS011;9053;53.358;6.382;2022-08-19T00:22:25;7.78;;;5.78;;
17854;SDS011;9053;53.358;6.382;2022-08-19T00:24:55;5.85;;;5.28;;
17854;SDS011;9053;53.358;6.382;2022-08-19T00:27:27;4.90;;;4.40;;
17854;SDS011;9053;53.358;6.382;2022-08-19T00:29:57;4.00;;;3.60;;
17854;SDS011;9053;53.358;6.382;2022-08-19T00:32:29;5.03;;;4.60;;
17854;SDS011;9053;53.358;6.382;2022-08-19T00:35:00;4.22;;;3.83;;
17854;SDS011;9053;53.358;6.382;2022-08-19T00:37:33;6.00;;;4.20;;
17854;SDS011;9053;53.358;6.382;2022-08-19T00:40:04;5.90;;;4.82;;
17854;SDS011;9053;53.358;6.382;2022-08-19T00:42:35;6.15;;;5.55;;
17854;SDS011;9053;53.358;6.382;2022-08-19T00:45:08;6.03;;;5.43;;
17854;SDS011;9053;53.358;6.382;2022-08-19T00:47:41;6.30;;;5.68;;
17854;SDS011;9053;53.358;6.382;2022-08-19T00:50:11;6.95;;;6.15;;
17854;SDS011;9053;53.358;6.382;2022-08-19T00:52:47;6.25;;;5.65;;
17854;SDS011;9053;53.358;6.382;2022-08-19T00:55:22;5.82;;;4.57;;
17854;SDS011;9053;53.358;6.382;2022-08-19T00:57:56;6.68;;;6.00;;
17854;SDS011;9053;53.358;6.382;2022-08-19T01:00:29;6.03;;;5.18;;
17854;SDS011;9053;53.358;6.382;2022-08-19T01:03:03;6.38;;;5.78;;
17854;SDS011;9053;53.358;6.382;2022-08-19T01:05:35;8.27;;;6.60;;
17854;SDS011;9053;53.358;6.382;2022-08-19T01:08:09;7.15;;;6.45;;
17854;SDS011;9053;53.358;6.382;2022-08-19T01:10:40;7.68;;;6.88;;
17854;SDS011;9053;53.358;6.382;2022-08-19T01:13:13;9.00;;;6.72;;
17854;SDS011;9053;53.358;6.382;2022-08-19T01:15:46;6.70;;;5.45;;
17854;SDS011;9053;53.358;6.382;2022-08-19T01:18:21;7.10;;;6.00;;
17854;SDS011;9053;53.358;6.382;2022-08-19T01:20:51;6.97;;;5.95;;
17854;SDS011;9053;53.358;6.382;2022-08-19T01:23:26;9.38;;;6.43;;
17854;SDS011;9053;53.358;6.382;2022-08-19T01:26:09;8.40;;;6.85;;
17854;SDS011;9053;53.358;6.382;2022-08-19T01:28:41;6.47;;;5.88;;
17854;SDS011;9053;53.358;6.382;2022-08-19T01:31:13;6.88;;;6.28;;
17854;SDS011;9053;53.358;6.382;2022-08-19T01:33:53;7.03;;;6.00;;
17854;SDS011;9053;53.358;6.382;2022-08-19T01:36:27;7.35;;;6.55;;
17854;SDS011;9053;53.358;6.382;2022-08-19T01:39:01;7.07;;;6.15;;
17854;SDS011;9053;53.358;6.382;2022-08-19T01:41:35;5.65;;;5.13;;
17854;SDS011;9053;53.358;6.382;2022-08-19T01:44:05;8.15;;;6.75;;
17854;SDS011;9053;53.358;6.382;2022-08-19T01:46:45;6.05;;;5.45;;
17854;SDS011;9053;53.358;6.382;2022-08-19T01:49:17;7.13;;;6.38;;
17854;SDS011;9053;53.358;6.382;2022-08-19T01:51:49;6.68;;;5.97;;
17854;SDS011;9053;53.358;6.382;2022-08-19T01:54:22;5.13;;;4.63;;
17854;SDS011;9053;53.358;6.382;2022-08-19T01:56:54;5.10;;;4.45;;
17854;SDS011;9053;53.358;6.382;2022-08-19T01:59:27;6.95;;;5.43;;
17854;SDS011;9053;53.358;6.382;2022-08-19T02:01:57;5.55;;;5.05;;
17854;SDS011;9053;53.358;6.382;2022-08-19T02:04:27;7.15;;;5.72;;
17854;SDS011;9053;53.358;6.382;2022-08-19T02:06:57;6.57;;;5.65;;
17854;SDS011;9053;53.358;6.382;2022-08-19T02:09:29;6.38;;;4.95;;
17854;SDS011;9053;53.358;6.382;2022-08-19T02:12:00;6.32;;;5.45;;
17854;SDS011;9053;53.358;6.382;2022-08-19T02:14:29;6.82;;;6.13;;
17854;SDS011;9053;53.358;6.382;2022-08-19T02:16:59;7.05;;;6.35;;
17854;SDS011;9053;53.358;6.382;2022-08-19T02:19:29;7.70;;;5.93;;
17854;SDS011;9053;53.358;6.382;2022-08-19T02:22:04;6.57;;;5.97;;
17854;SDS011;9053;53.358;6.382;2022-08-19T02:24:37;6.45;;;5.80;;
17854;SDS011;9053;53.358;6.382;2022-08-19T02:27:07;6.68;;;5.50;;
17854;SDS011;9053;53.358;6.382;2022-08-19T02:29:37;5.60;;;5.10;;
17854;SDS011;9053;53.358;6.382;2022-08-19T02:32:07;6.43;;;5.00;;
17854;SDS011;9053;53.358;6.382;2022-08-19T02:34:37;6.53;;;5.85;;
17854;SDS011;9053;53.358;6.382;2022-08-19T02:37:06;6.20;;;5.60;;
17854;SDS011;9053;53.358;6.382;2022-08-19T02:40:03;7.00;;;6.15;;
17854;SDS011;9053;53.358;6.382;2022-08-19T02:42:38;7.35;;;5.95;;
17854;SDS011;9053;53.358;6.382;2022-08-19T02:45:09;7.35;;;5.75;;
17854;SDS011;9053;53.358;6.382;2022-08-19T02:47:39;5.20;;;4.70;;
17854;SDS011;9053;53.358;6.382;2022-08-19T02:50:09;6.10;;;4.82;;
17854;SDS011;9053;53.358;6.382;2022-08-19T02:52:39;7.68;;;5.25;;
17854;SDS011;9053;53.358;6.382;2022-08-19T02:55:11;6.47;;;5.75;;
17854;SDS011;9053;53.358;6.382;2022-08-19T02:57:41;6.63;;;5.35;;
17854;SDS011;9053;53.358;6.382;2022-08-19T03:00:11;5.65;;;5.07;;
17854;SDS011;9053;53.358;6.382;2022-08-19T03:02:41;5.82;;;5.32;;
17854;SDS011;9053;53.358;6.382;2022-08-19T03:05:13;6.85;;;5.97;;
17854;SDS011;9053;53.358;6.382;2022-08-19T03:07:42;5.70;;;5.20;;
17854;SDS011;9053;53.358;6.382;2022-08-19T03:10:15;6.72;;;5.97;;
17854;SDS011;9053;53.358;6.382;2022-08-19T03:12:45;6.38;;;5.75;;
17854;SDS011;9053;53.358;6.382;2022-08-19T03:15:15;6.93;;;6.28;;
17854;SDS011;9053;53.358;6.382;2022-08-19T03:17:45;6.63;;;5.90;;
17854;SDS011;9053;53.358;6.382;2022-08-19T03:20:14;6.03;;;5.43;;
17854;SDS011;9053;53.358;6.382;2022-08-19T03:22:44;5.55;;;4.82;;
17854;SDS011;9053;53.358;6.382;2022-08-19T03:25:17;6.43;;;5.80;;
17854;SDS011;9053;53.358;6.382;2022-08-19T03:27:47;5.75;;;4.95;;
17854;SDS011;9053;53.358;6.382;2022-08-19T03:30:17;5.40;;;4.47;;
17854;SDS011;9053;53.358;6.382;2022-08-19T03:32:49;5.20;;;4.25;;
17854;SDS011;9053;53.358;6.382;2022-08-19T03:35:22;4.80;;;4.25;;
17854;SDS011;9053;53.358;6.382;2022-08-19T03:37:52;4.63;;;4.18;;
17854;SDS011;9053;53.358;6.382;2022-08-19T03:40:25;4.63;;;4.13;;
17854;SDS011;9053;53.358;6.382;2022-08-19T03:42:56;4.60;;;4.20;;
17854;SDS011;9053;53.358;6.382;2022-08-19T03:45:26;4.07;;;3.45;;
17854;SDS011;9053;53.358;6.382;2022-08-19T03:47:56;5.30;;;4.20;;
17854;SDS011;9053;53.358;6.382;2022-08-19T03:50:25;5.35;;;4.32;;
17854;SDS011;9053;53.358;6.382;2022-08-19T03:52:56;4.90;;;4.45;;
17854;SDS011;9053;53.358;6.382;2022-08-19T03:55:28;5.30;;;4.32;;
17854;SDS011;9053;53.358;6.382;2022-08-19T03:57:58;4.50;;;3.97;;
17854;SDS011;9053;53.358;6.382;2022-08-19T04:00:28;4.88;;;4.45;;
17854;SDS011;9053;53.358;6.382;2022-08-19T04:02:59;4.45;;;4.05;;
17854;SDS011;9053;53.358;6.382;2022-08-19T04:05:29;4.43;;;4.00;;
17854;SDS011;9053;53.358;6.382;2022-08-19T04:07:59;4.13;;;3.72;;
17854;SDS011;9053;53.358;6.382;2022-08-19T04:10:31;5.00;;;4.35;;
17854;SDS011;9053;53.358;6.382;2022-08-19T04:13:04;7.32;;;4.82;;
17854;SDS011;9053;53.358;6.382;2022-08-19T04:15:39;5.13;;;4.63;;
17854;SDS011;9053;53.358;6.382;2022-08-19T04:18:09;5.72;;;4.80;;
17854;SDS011;9053;53.358;6.382;2022-08-19T04:20:43;6.25;;;4.40;;
17854;SDS011;9053;53.358;6.382;2022-08-19T04:23:15;5.57;;;4.95;;
17854;SDS011;9053;53.358;6.382;2022-08-19T04:25:47;5.57;;;4.90;;
17854;SDS011;9053;53.358;6.382;2022-08-19T04:28:17;7.07;;;5.43;;
17854;SDS011;9053;53.358;6.382;2022-08-19T04:30:48;7.40;;;4.90;;
17854;SDS011;9053;53.358;6.382;2022-08-19T04:33:19;6.15;;;5.50;;
17854;SDS011;9053;53.358;6.382;2022-08-19T04:35:53;6.70;;;5.45;;
17854;SDS011;9053;53.358;6.382;2022-08-19T04:38:24;6.72;;;5.47;;
17854;SDS011;9053;53.358;6.382;2022-08-19T04:40:57;6.13;;;4.95;;
17854;SDS011;9053;53.358;6.382;2022-08-19T04:43:39;6.25;;;5.20;;
17854;SDS011;9053;53.358;6.382;2022-08-19T04:46:14;6.13;;;5.50;;
17854;SDS011;9053;53.358;6.382;2022-08-19T04:49:06;5.93;;;5.30;;
17854;SDS011;9053;53.358;6.382;2022-08-19T04:51:39;6.55;;;5.35;;
17854;SDS011;9053;53.358;6.382;2022-08-19T04:54:12;5.82;;;5.10;;
17854;SDS011;9053;53.358;6.382;2022-08-19T04:57:06;4.68;;;3.88;;
17854;SDS011;9053;53.358;6.382;2022-08-19T04:59:37;4.30;;;3.70;;
17854;SDS011;9053;53.358;6.382;2022-08-19T05:02:08;5.13;;;3.55;;
17854;SDS011;9053;53.358;6.382;2022-08-19T05:04:38;4.40;;;4.00;;
17854;SDS011;9053;53.358;6.382;2022-08-19T05:07:08;4.07;;;3.65;;
17854;SDS011;9053;53.358;6.382;2022-08-19T05:09:38;4.05;;;3.63;;
17854;SDS011;9053;53.358;6.382;2022-08-19T05:12:26;5.45;;;3.90;;
17854;SDS011;9053;53.358;6.382;2022-08-19T05:14:56;4.80;;;4.30;;
17854;SDS011;9053;53.358;6.382;2022-08-19T05:17:27;5.97;;;5.32;;
17854;SDS011;9053;53.358;6.382;2022-08-19T05:20:03;6.10;;;5.50;;
17854;SDS011;9053;53.358;6.382;2022-08-19T05:22:46;7.40;;;6.25;;
17854;SDS011;9053;53.358;6.382;2022-08-19T05:25:19;6.68;;;5.85;;
17854;SDS011;9053;53.358;6.382;2022-08-19T05:27:54;5.78;;;5.28;;
17854;SDS011;9053;53.358;6.382;2022-08-19T05:30:24;5.72;;;5.10;;
17854;SDS011;9053;53.358;6.382;2022-08-19T05:33:11;6.35;;;5.28;;
17854;SDS011;9053;53.358;6.382;2022-08-19T05:35:41;5.68;;;5.07;;
17854;SDS011;9053;53.358;6.382;2022-08-19T05:38:12;6.10;;;5.20;;
17854;SDS011;9053;53.358;6.382;2022-08-19T05:40:42;5.68;;;5.07;;
17854;SDS011;9053;53.358;6.382;2022-08-19T05:43:18;5.53;;;4.88;;
17854;SDS011;9053;53.358;6.382;2022-08-19T05:45:48;5.07;;;4.57;;
17854;SDS011;9053;53.358;6.382;2022-08-19T05:48:18;6.25;;;5.15;;
17854;SDS011;9053;53.358;6.382;2022-08-19T05:50:48;7.00;;;5.85;;
17854;SDS011;9053;53.358;6.382;2022-08-19T05:53:18;5.72;;;5.13;;
17854;SDS011;9053;53.358;6.382;2022-08-19T05:55:48;6.28;;;5.68;;
17854;SDS011;9053;53.358;6.382;2022-08-19T05:58:21;7.13;;;6.18;;
17854;SDS011;9053;53.358;6.382;2022-08-19T06:00:53;7.00;;;6.30;;
17854;SDS011;9053;53.358;6.382;2022-08-19T06:03:23;7.55;;;5.95;;
17854;SDS011;9053;53.358;6.382;2022-08-19T06:05:53;6.70;;;6.00;;
17854;SDS011;9053;53.358;6.382;2022-08-19T06:08:25;7.20;;;6.50;;
17854;SDS011;9053;53.358;6.382;2022-08-19T06:11:11;7.03;;;6.32;;
17854;SDS011;9053;53.358;6.382;2022-08-19T06:13:45;8.38;;;6.32;;
17854;SDS011;9053;53.358;6.382;2022-08-19T06:16:17;7.32;;;6.50;;
17854;SDS011;9053;53.358;6.382;2022-08-19T06:18:49;7.90;;;7.10;;
17854;SDS011;9053;53.358;6.382;2022-08-19T06:21:21;7.32;;;6.55;;
17854;SDS011;9053;53.358;6.382;2022-08-19T06:23:53;7.28;;;6.47;;
17854;SDS011;9053;53.358;6.382;2022-08-19T06:26:25;8.57;;;7.38;;
17854;SDS011;9053;53.358;6.382;2022-08-19T06:28:57;8.27;;;7.43;;
17854;SDS011;9053;53.358;6.382;2022-08-19T06:31:28;8.88;;;7.57;;
17854;SDS011;9053;53.358;6.382;2022-08-19T06:34:00;10.45;;;8.02;;
17854;SDS011;9053;53.358;6.382;2022-08-19T06:36:34;8.57;;;6.80;;
17854;SDS011;9053;53.358;6.382;2022-08-19T06:39:07;7.30;;;6.60;;
17854;SDS011;9053;53.358;6.382;2022-08-19T06:41:40;8.90;;;8.07;;
17854;SDS011;9053;53.358;6.382;2022-08-19T06:44:21;8.02;;;6.68;;
17854;SDS011;9053;53.358;6.382;2022-08-19T06:46:52;8.60;;;6.90;;
17854;SDS011;9053;53.358;6.382;2022-08-19T06:49:23;6.30;;;5.75;;
17854;SDS011;9053;53.358;6.382;2022-08-19T06:51:58;7.30;;;6.60;;
17854;SDS011;9053;53.358;6.382;2022-08-19T06:54:29;7.53;;;6.75;;
17854;SDS011;9053;53.358;6.382;2022-08-19T06:57:19;8.32;;;6.15;;
17854;SDS011;9053;53.358;6.382;2022-08-19T06:59:52;7.43;;;6.57;;
17854;SDS011;9053;53.358;6.382;2022-08-19T07:02:22;7.65;;;6.50;;
17854;SDS011;9053;53.358;6.382;2022-08-19T07:04:53;7.03;;;6.35;;
17854;SDS011;9053;53.358;6.382;2022-08-19T07:07:24;7.32;;;6.45;;
17854;SDS011;9053;53.358;6.382;2022-08-19T07:09:54;8.02;;;6.75;;
17854;SDS011;9053;53.358;6.382;2022-08-19T07:12:29;7.78;;;6.97;;
17854;SDS011;9053;53.358;6.382;2022-08-19T07:15:06;6.82;;;5.95;;
17854;SDS011;9053;53.358;6.382;2022-08-19T07:17:37;6.72;;;6.03;;
17854;SDS011;9053;53.358;6.382;2022-08-19T07:20:10;6.65;;;6.00;;
17854;SDS011;9053;53.358;6.382;2022-08-19T07:22:43;8.65;;;6.90;;
17854;SDS011;9053;53.358;6.382;2022-08-19T07:25:15;7.43;;;6.65;;
17854;SDS011;9053;53.358;6.382;2022-08-19T07:27:57;6.47;;;5.88;;
17854;SDS011;9053;53.358;6.382;2022-08-19T07:30:30;7.50;;;6.70;;
17854;SDS011;9053;53.358;6.382;2022-08-19T07:33:00;8.40;;;7.50;;
17854;SDS011;9053;53.358;6.382;2022-08-19T07:35:30;7.20;;;6.50;;
17854;SDS011;9053;53.358;6.382;2022-08-19T07:38:01;6.93;;;6.22;;
17854;SDS011;9053;53.358;6.382;2022-08-19T07:40:31;7.15;;;6.45;;
17854;SDS011;9053;53.358;6.382;2022-08-19T07:43:01;7.18;;;6.47;;
17854;SDS011;9053;53.358;6.382;2022-08-19T07:45:34;6.95;;;6.28;;
17854;SDS011;9053;53.358;6.382;2022-08-19T07:48:03;8.10;;;7.35;;
17854;SDS011;9053;53.358;6.382;2022-08-19T07:50:33;7.80;;;5.75;;
17854;SDS011;9053;53.358;6.382;2022-08-19T07:53:03;8.30;;;7.07;;
17854;SDS011;9053;53.358;6.382;2022-08-19T07:55:33;6.63;;;5.63;;
17854;SDS011;9053;53.358;6.382;2022-08-19T07:58:09;6.65;;;6.00;;
17854;SDS011;9053;53.358;6.382;2022-08-19T08:00:43;8.77;;;7.60;;
17854;SDS011;9053;53.358;6.382;2022-08-19T08:03:15;8.38;;;7.22;;
17854;SDS011;9053;53.358;6.382;2022-08-19T08:05:46;7.30;;;6.57;;
17854;SDS011;9053;53.358;6.382;2022-08-19T08:08:29;7.63;;;6.82;;
17854;SDS011;9053;53.358;6.382;2022-08-19T08:11:14;8.95;;;7.93;;
17854;SDS011;9053;53.358;6.382;2022-08-19T08:13:46;10.70;;;9.70;;
17854;SDS011;9053;53.358;6.382;2022-08-19T08:16:32;10.05;;;9.05;;
17854;SDS011;9053;53.358;6.382;2022-08-19T08:19:12;8.82;;;8.02;;
17854;SDS011;9053;53.358;6.382;2022-08-19T08:21:51;9.55;;;8.55;;
17854;SDS011;9053;53.358;6.382;2022-08-19T08:24:22;8.18;;;7.43;;
17854;SDS011;9053;53.358;6.382;2022-08-19T08:26:54;7.93;;;7.20;;
17854;SDS011;9053;53.358;6.382;2022-08-19T08:29:25;8.40;;;6.47;;
17854;SDS011;9053;53.358;6.382;2022-08-19T08:32:03;8.30;;;7.57;;
17854;SDS011;9053;53.358;6.382;2022-08-19T08:34:40;7.38;;;6.72;;
17854;SDS011;9053;53.358;6.382;2022-08-19T08:37:15;7.60;;;6.90;;
17854;SDS011;9053;53.358;6.382;2022-08-19T08:39:45;7.82;;;7.13;;
17854;SDS011;9053;53.358;6.382;2022-08-19T08:42:16;9.38;;;8.40;;
17854;SDS011;9053;53.358;6.382;2022-08-19T08:44:53;9.93;;;9.02;;
17854;SDS011;9053;53.358;6.382;2022-08-19T08:47:32;9.82;;;8.85;;
17854;SDS011;9053;53.358;6.382;2022-08-19T08:50:08;9.07;;;8.15;;
17854;SDS011;9053;53.358;6.382;2022-08-19T08:52:43;8.77;;;8.02;;
17854;SDS011;9053;53.358;6.382;2022-08-19T08:55:17;9.93;;;8.98;;
17854;SDS011;9053;53.358;6.382;2022-08-19T08:57:50;8.18;;;7.47;;
17854;SDS011;9053;53.358;6.382;2022-08-19T09:00:24;10.05;;;8.88;;
17854;SDS011;9053;53.358;6.382;2022-08-19T09:02:59;11.88;;;10.70;;
17854;SDS011;9053;53.358;6.382;2022-08-19T09:05:37;11.18;;;10.07;;
17854;SDS011;9053;53.358;6.382;2022-08-19T09:08:18;11.18;;;10.07;;
17854;SDS011;9053;53.358;6.382;2022-08-19T09:10:59;10.75;;;9.75;;
17854;SDS011;9053;53.358;6.382;2022-08-19T09:13:36;11.13;;;10.13;;
17854;SDS011;9053;53.358;6.382;2022-08-19T09:16:15;12.27;;;11.05;;
17854;SDS011;9053;53.358;6.382;2022-08-19T09:18:57;11.68;;;10.48;;
17854;SDS011;9053;53.358;6.382;2022-08-19T09:21:33;12.82;;;11.52;;
17854;SDS011;9053;53.358;6.382;2022-08-19T09:24:05;12.20;;;10.85;;
17854;SDS011;9053;53.358;6.382;2022-08-19T09:26:35;10.93;;;9.93;;
17854;SDS011;9053;53.358;6.382;2022-08-19T09:29:18;11.75;;;10.55;;
17854;SDS011;9053;53.358;6.382;2022-08-19T09:31:48;11.82;;;10.63;;
17854;SDS011;9053;53.358;6.382;2022-08-19T09:34:21;13.20;;;11.63;;
17854;SDS011;9053;53.358;6.382;2022-08-19T09:36:51;15.80;;;11.27;;
17854;SDS011;9053;53.358;6.382;2022-08-19T09:39:24;12.27;;;10.93;;
17854;SDS011;9053;53.358;6.382;2022-08-19T09:42:01;13.10;;;11.80;;
17854;SDS011;9053;53.358;6.382;2022-08-19T09:44:54;13.23;;;11.82;;
17854;SDS011;9053;53.358;6.382;2022-08-19T09:47:25;11.20;;;10.02;;
17854;SDS011;9053;53.358;6.382;2022-08-19T09:49:59;10.45;;;9.45;;
17854;SDS011;9053;53.358;6.382;2022-08-19T09:52:29;11.10;;;9.98;;
17854;SDS011;9053;53.358;6.382;2022-08-19T09:55:02;10.18;;;9.23;;
17854;SDS011;9053;53.358;6.382;2022-08-19T09:57:33;10.90;;;9.88;;
17854;SDS011;9053;53.358;6.382;2022-08-19T10:00:04;14.57;;;13.20;;
17854;SDS011;9053;53.358;6.382;2022-08-19T10:02:36;12.73;;;11.27;;
17854;SDS011;9053;53.358;6.382;2022-08-19T10:05:13;10.63;;;9.63;;
17854;SDS011;9053;53.358;6.382;2022-08-19T10:07:56;8.43;;;7.63;;
17854;SDS011;9053;53.358;6.382;2022-08-19T10:10:38;11.85;;;10.65;;
17854;SDS011;9053;53.358;6.382;2022-08-19T10:13:12;13.63;;;12.32;;
17854;SDS011;9053;53.358;6.382;2022-08-19T10:15:44;14.98;;;13.48;;
17854;SDS011;9053;53.358;6.382;2022-08-19T10:18:16;13.98;;;12.50;;
17854;SDS011;9053;53.358;6.382;2022-08-19T10:20:50;16.52;;;15.00;;
17854;SDS011;9053;53.358;6.382;2022-08-19T10:23:21;14.40;;;13.00;;
17854;SDS011;9053;53.358;6.382;2022-08-19T10:25:50;15.85;;;14.25;;
17854;SDS011;9053;53.358;6.382;2022-08-19T10:28:20;15.85;;;14.25;;
17854;SDS011;9053;53.358;6.382;2022-08-19T10:30:50;14.45;;;13.05;;
17854;SDS011;9053;53.358;6.382;2022-08-19T10:33:20;17.50;;;15.80;;
17854;SDS011;9053;53.358;6.382;2022-08-19T10:36:11;13.57;;;12.15;;
17854;SDS011;9053;53.358;6.382;2022-08-19T10:38:46;15.95;;;14.35;;
17854;SDS011;9053;53.358;6.382;2022-08-19T10:41:23;17.45;;;14.63;;
17854;SDS011;9053;53.358;6.382;2022-08-19T10:43:55;13.30;;;12.07;;
17854;SDS011;9053;53.358;6.382;2022-08-19T10:46:29;12.63;;;10.98;;
17854;SDS011;9053;53.358;6.382;2022-08-19T10:49:02;12.57;;;11.27;;
17854;SDS011;9053;53.358;6.382;2022-08-19T10:51:36;11.18;;;10.18;;
17854;SDS011;9053;53.358;6.382;2022-08-19T10:54:19;11.45;;;10.35;;
17854;SDS011;9053;53.358;6.382;2022-08-19T10:56:57;14.35;;;12.93;;
17854;SDS011;9053;53.358;6.382;2022-08-19T10:59:26;13.68;;;12.27;;
17854;SDS011;9053;53.358;6.382;2022-08-19T11:02:02;13.60;;;12.30;;
17854;SDS011;9053;53.358;6.382;2022-08-19T11:04:36;12.00;;;10.90;;
17854;SDS011;9053;53.358;6.382;2022-08-19T11:07:09;14.80;;;13.50;;
17854;SDS011;9053;53.358;6.382;2022-08-19T11:09:40;11.65;;;10.55;;
17854;SDS011;9053;53.358;6.382;2022-08-19T11:12:12;16.48;;;14.85;;
17854;SDS011;9053;53.358;6.382;2022-08-19T11:14:43;15.57;;;14.00;;
17854;SDS011;9053;53.358;6.382;2022-08-19T11:17:16;16.85;;;15.18;;
17854;SDS011;9053;53.358;6.382;2022-08-19T11:19:46;15.45;;;13.85;;
17854;SDS011;9053;53.358;6.382;2022-08-19T11:22:18;13.60;;;12.13;;
17854;SDS011;9053;53.358;6.382;2022-08-19T11:24:48;15.13;;;13.68;;
17854;SDS011;9053;53.358;6.382;2022-08-19T11:27:18;13.88;;;12.57;;
17854;SDS011;9053;53.358;6.382;2022-08-19T11:29:47;12.68;;;11.48;;
17854;SDS011;9053;53.358;6.382;2022-08-19T11:32:19;12.80;;;11.63;;
17854;SDS011;9053;53.358;6.382;2022-08-19T11:34:49;13.65;;;12.30;;
17854;SDS011;9053;53.358;6.382;2022-08-19T11:37:21;12.68;;;11.45;;
17854;SDS011;9053;53.358;6.382;2022-08-19T11:39:51;12.60;;;11.43;;
17854;SDS011;9053;53.358;6.382;2022-08-19T11:42:21;14.15;;;12.75;;
17854;SDS011;9053;53.358;6.382;2022-08-19T11:45:03;12.43;;;11.25;;
17854;SDS011;9053;53.358;6.382;2022-08-19T11:47:34;13.70;;;12.30;;
17854;SDS011;9053;53.358;6.382;2022-08-19T11:50:05;12.05;;;10.75;;
17854;SDS011;9053;53.358;6.382;2022-08-19T11:52:38;10.93;;;9.82;;
17854;SDS011;9053;53.358;6.382;2022-08-19T11:55:10;11.30;;;10.10;;
17854;SDS011;9053;53.358;6.382;2022-08-19T11:57:40;15.15;;;13.55;;
17854;SDS011;9053;53.358;6.382;2022-08-19T12:00:10;11.65;;;10.43;;
17854;SDS011;9053;53.358;6.382;2022-08-19T12:02:41;14.95;;;13.45;;
17854;SDS011;9053;53.358;6.382;2022-08-19T12:05:11;13.88;;;12.48;;
17854;SDS011;9053;53.358;6.382;2022-08-19T12:07:43;12.38;;;11.07;;
17854;SDS011;9053;53.358;6.382;2022-08-19T12:10:13;12.20;;;11.00;;
17854;SDS011;9053;53.358;6.382;2022-08-19T12:12:45;9.63;;;8.63;;
17854;SDS011;9053;53.358;6.382;2022-08-19T12:15:25;11.63;;;10.52;;
17854;SDS011;9053;53.358;6.382;2022-08-19T12:18:02;8.85;;;7.95;;
17854;SDS011;9053;53.358;6.382;2022-08-19T12:20:34;9.65;;;8.70;;
17854;SDS011;9053;53.358;6.382;2022-08-19T12:23:07;10.40;;;9.40;;
17854;SDS011;9053;53.358;6.382;2022-08-19T12:25:42;11.15;;;8.48;;
17854;SDS011;9053;53.358;6.382;2022-08-19T12:28:14;15.75;;;11.80;;
17854;SDS011;9053;53.358;6.382;2022-08-19T12:30:44;15.57;;;12.07;;
17854;SDS011;9053;53.358;6.382;2022-08-19T12:33:14;13.52;;;10.07;;
17854;SDS011;9053;53.358;6.382;2022-08-19T12:35:44;17.58;;;11.48;;
17854;SDS011;9053;53.358;6.382;2022-08-19T12:38:17;18.73;;;12.20;;
17854;SDS011;9053;53.358;6.382;2022-08-19T12:40:50;22.92;;;16.00;;
17854;SDS011;9053;53.358;6.382;2022-08-19T12:43:25;19.73;;;14.48;;
17854;SDS011;9053;53.358;6.382;2022-08-19T12:45:55;20.77;;;14.63;;
17854;SDS011;9053;53.358;6.382;2022-08-19T12:48:25;16.75;;;13.48;;
17854;SDS011;9053;53.358;6.382;2022-08-19T12:51:00;18.83;;;14.45;;
17854;SDS011;9053;53.358;6.382;2022-08-19T12:53:37;14.63;;;11.93;;
17854;SDS011;9053;53.358;6.382;2022-08-19T12:56:07;17.98;;;14.02;;
17854;SDS011;9053;53.358;6.382;2022-08-19T12:58:39;15.20;;;13.60;;
17854;SDS011;9053;53.358;6.382;2022-08-19T13:01:16;18.25;;;14.95;;
17854;SDS011;9053;53.358;6.382;2022-08-19T13:03:49;15.65;;;12.52;;
17854;SDS011;9053;53.358;6.382;2022-08-19T13:06:19;17.73;;;13.30;;
17854;SDS011;9053;53.358;6.382;2022-08-19T13:08:52;17.35;;;13.75;;
17854;SDS011;9053;53.358;6.382;2022-08-19T13:11:25;17.90;;;13.48;;
17854;SDS011;9053;53.358;6.382;2022-08-19T13:13:58;17.52;;;13.95;;
17854;SDS011;9053;53.358;6.382;2022-08-19T13:16:29;16.45;;;12.93;;
17854;SDS011;9053;53.358;6.382;2022-08-19T13:18:59;15.57;;;12.07;;
17854;SDS011;9053;53.358;6.382;2022-08-19T13:21:30;19.80;;;13.13;;
17854;SDS011;9053;53.358;6.382;2022-08-19T13:24:04;14.70;;;12.27;;
17854;SDS011;9053;53.358;6.382;2022-08-19T13:26:34;15.77;;;13.07;;
17854;SDS011;9053;53.358;6.382;2022-08-19T13:29:04;13.63;;;11.95;;
17854;SDS011;9053;53.358;6.382;2022-08-19T13:31:46;11.45;;;9.75;;
17854;SDS011;9053;53.358;6.382;2022-08-19T13:34:29;11.48;;;10.20;;
17854;SDS011;9053;53.358;6.382;2022-08-19T13:37:03;11.68;;;10.48;;
17854;SDS011;9053;53.358;6.382;2022-08-19T13:39:36;10.07;;;9.07;;
17854;SDS011;9053;53.358;6.382;2022-08-19T13:42:06;17.27;;;15.68;;
17854;SDS011;9053;53.358;6.382;2022-08-19T13:44:37;16.30;;;11.48;;
17854;SDS011;9053;53.358;6.382;2022-08-19T13:47:06;10.90;;;9.80;;
17854;SDS011;9053;53.358;6.382;2022-08-19T13:49:39;10.68;;;8.95;;
17854;SDS011;9053;53.358;6.382;2022-08-19T13:52:09;10.82;;;9.68;;
17854;SDS011;9053;53.358;6.382;2022-08-19T13:54:41;12.23;;;10.63;;
17854;SDS011;9053;53.358;6.382;2022-08-19T13:57:11;9.30;;;8.10;;
17854;SDS011;9053;53.358;6.382;2022-08-19T13:59:42;10.13;;;9.10;;
17854;SDS011;9053;53.358;6.382;2022-08-19T14:02:12;13.77;;;10.13;;
17854;SDS011;9053;53.358;6.382;2022-08-19T14:04:42;11.02;;;9.55;;
17854;SDS011;9053;53.358;6.382;2022-08-19T14:07:11;8.48;;;7.57;;
17854;SDS011;9053;53.358;6.382;2022-08-19T14:09:44;11.10;;;8.60;;
17854;SDS011;9053;53.358;6.382;2022-08-19T14:12:14;11.48;;;9.43;;
17854;SDS011;9053;53.358;6.382;2022-08-19T14:14:54;9.60;;;8.32;;
17854;SDS011;9053;53.358;6.382;2022-08-19T14:17:24;9.30;;;7.53;;
17854;SDS011;9053;53.358;6.382;2022-08-19T14:19:56;10.32;;;9.23;;
17854;SDS011;9053;53.358;6.382;2022-08-19T14:22:37;12.73;;;9.45;;
17854;SDS011;9053;53.358;6.382;2022-08-19T14:25:12;9.43;;;8.43;;
17854;SDS011;9053;53.358;6.382;2022-08-19T14:27:43;10.98;;;8.10;;
17854;SDS011;9053;53.358;6.382;2022-08-19T14:30:14;9.63;;;8.55;;
17854;SDS011;9053;53.358;6.382;2022-08-19T14:32:46;14.05;;;10.63;;
17854;SDS011;9053;53.358;6.382;2022-08-19T14:35:16;10.60;;;8.75;;
17854;SDS011;9053;53.358;6.382;2022-08-19T14:37:47;12.30;;;9.73;;
17854;SDS011;9053;53.358;6.382;2022-08-19T14:40:23;10.85;;;9.52;;
17854;SDS011;9053;53.358;6.382;2022-08-19T14:42:56;14.55;;;11.50;;
17854;SDS011;9053;53.358;6.382;2022-08-19T14:45:30;11.73;;;8.60;;
17854;SDS011;9053;53.358;6.382;2022-08-19T14:48:02;9.32;;;8.25;;
17854;SDS011;9053;53.358;6.382;2022-08-19T14:50:32;15.45;;;14.00;;
17854;SDS011;9053;53.358;6.382;2022-08-19T14:53:04;13.30;;;10.88;;
17854;SDS011;9053;53.358;6.382;2022-08-19T14:55:43;13.30;;;11.02;;
17854;SDS011;9053;53.358;6.382;2022-08-19T14:58:14;13.02;;;9.85;;
17854;SDS011;9053;53.358;6.382;2022-08-19T15:00:55;13.02;;;11.25;;
17854;SDS011;9053;53.358;6.382;2022-08-19T15:03:26;14.35;;;11.60;;
17854;SDS011;9053;53.358;6.382;2022-08-19T15:05:58;17.25;;;14.05;;
17854;SDS011;9053;53.358;6.382;2022-08-19T15:08:29;20.92;;;15.20;;
17854;SDS011;9053;53.358;6.382;2022-08-19T15:11:06;14.43;;;12.60;;
17854;SDS011;9053;53.358;6.382;2022-08-19T15:13:37;20.92;;;16.05;;
17854;SDS011;9053;53.358;6.382;2022-08-19T15:16:08;17.15;;;13.27;;
17854;SDS011;9053;53.358;6.382;2022-08-19T15:18:46;16.70;;;13.27;;
17854;SDS011;9053;53.358;6.382;2022-08-19T15:21:20;19.33;;;15.70;;
17854;SDS011;9053;53.358;6.382;2022-08-19T15:23:53;16.98;;;14.32;;
17854;SDS011;9053;53.358;6.382;2022-08-19T15:26:26;14.77;;;11.90;;